Elmo, Missouri
Current Conditions -  °F | °C
As of 12:15 AM on Thursday 29 Jan 2015 (Local Time) from KICL Reporting Station
Overcast Overcast  
Wind Chill: 35°   Ceiling: 1900
Heat Index: 45°   Visibility: 10mi
Dew Point: 37°   Wind: 25mph
Humidity: 76%   Direction: 330°NNW
Pressure: 29.91"   Gusts: 36mph
Location:  40.52°N, 95.12°W
Report Text: KICL 290615Z AUTO 33022G31KT 10SM OVC019 07/03 A2991 RMK AO2
Loading
Personal Weather Stations






























Interactive Weather Map New forecast layout! Learn more

10-Day Weather Forecast

Advertisements
Track Severe Weather on mobile